Time;durP1;ratioP1;P1;durP2;ratioP2;P2;SDS_P1;SDS_P2;PMS_P1;PMS_P2;Temp;Humidity;BMP_temperature;BMP_pressure;BME280_temperature;BME280_humidity;BME280_pressure;Samples;Min_cycle;Max_cycle;Signal;HPM_P1;HPM_P2
2023/12/13 00:00:07;;;;;;;;;3.00;1.33;;;;;11.98;81.04;99522.63;5057895;28;45503;-73
2023/12/13 00:02:33;;;;;;;;;4.00;2.00;;;;;12.02;81.04;99526.94;5059339;28;45415;-70
2023/12/13 00:04:58;;;;;;;;;5.33;3.33;;;;;11.87;80.88;99513.25;5057832;28;45512;-72
2023/12/13 00:07:28;;;;;;;;;2.00;2.00;;;;;11.82;81.00;99501.13;5058218;28;45547;-72
2023/12/13 00:09:54;;;;;;;;;4.67;3.00;;;;;11.70;81.24;99486.53;5057801;28;45468;-71
2023/12/13 00:12:19;;;;;;;;;3.33;2.67;;;;;11.90;81.37;99522.81;5056314;28;46957;-71
2023/12/13 00:14:45;;;;;;;;;3.00;1.00;;;;;11.86;81.50;99515.88;5058825;28;45404;-70
2023/12/13 00:17:14;;;;;;;;;4.00;1.00;;;;;11.93;80.98;99529.75;5059890;28;45231;-70
2023/12/13 00:19:40;;;;;;;;;5.00;1.00;;;;;11.71;80.96;99487.38;5057848;28;45447;-71
2023/12/13 00:22:05;;;;;;;;;2.00;2.00;;;;;11.89;80.43;99515.88;5056034;28;45911;-69
2023/12/13 00:24:31;;;;;;;;;5.33;2.00;;;;;11.95;80.96;99517.47;5057648;28;45442;-69
2023/12/13 00:26:57;;;;;;;;;2.00;2.00;;;;;11.96;80.54;99514.81;5058608;28;45611;-70
2023/12/13 00:29:22;;;;;;;;;4.00;1.00;;;;;11.82;80.39;99485.38;5059526;28;45553;-69
2023/12/13 00:31:48;;;;;;;;;4.00;1.00;;;;;11.99;80.08;99509.50;5056652;28;45836;-71
2023/12/13 00:34:14;;;;;;;;;6.00;3.33;;;;;11.86;80.64;99506.28;5057426;28;45421;-72
2023/12/13 00:36:39;;;;;;;;;7.00;2.00;;;;;11.84;81.09;99515.94;5057638;28;45357;-70
2023/12/13 00:39:05;;;;;;;;;3.33;2.00;;;;;11.83;81.05;99514.19;5057983;28;45444;-71
2023/12/13 00:41:31;;;;;;;;;6.00;3.00;;;;;11.70;80.66;99486.53;5058794;28;45912;-71
2023/12/13 00:43:56;;;;;;;;;3.67;1.00;;;;;11.74;80.51;99492.56;5061269;28;45270;-70
2023/12/13 00:46:22;;;;;;;;;2.00;2.00;;;;;11.75;80.83;99497.78;5063340;28;45452;-71
2023/12/13 00:48:51;;;;;;;;;2.00;2.00;;;;;11.71;80.71;99480.38;5057379;28;45449;-71
2023/12/13 00:51:21;;;;;;;;;9.00;2.33;;;;;11.70;80.36;99468.16;5046829;28;45492;-72
2023/12/13 00:53:47;;;;;;;;;5.67;1.67;;;;;11.78;80.38;99487.19;5058022;28;45349;-71
2023/12/13 00:56:13;;;;;;;;;2.33;0.67;;;;;11.70;80.95;99491.78;5058163;28;45364;-71
2023/12/13 00:58:38;;;;;;;;;3.00;2.00;;;;;11.69;80.82;99490.03;5057130;28;45430;-71
2023/12/13 01:01:05;;;;;;;;;2.00;2.00;;;;;11.55;81.10;99476.38;5056693;28;46098;-71
2023/12/13 01:03:31;;;;;;;;;1.00;1.00;;;;;11.67;80.73;99482.22;5041633;28;45398;-72
2023/12/13 01:05:56;;;;;;;;;2.33;1.33;;;;;11.55;80.66;99463.25;5056928;28;45364;-70
2023/12/13 01:08:22;;;;;;;;;5.00;2.00;;;;;11.67;81.07;99484.84;5057299;28;45635;-73
2023/12/13 01:10:48;;;;;;;;;4.33;2.00;;;;;11.67;80.58;99479.59;5056933;28;45435;-70
2023/12/13 01:13:13;;;;;;;;;2.00;1.00;;;;;11.53;80.39;99458.06;5057950;28;45452;-70
2023/12/13 01:15:39;;;;;;;;;4.00;2.00;;;;;11.67;80.76;99476.09;5057126;28;45377;-71
2023/12/13 01:18:06;;;;;;;;;5.00;3.00;;;;;11.70;80.58;99485.63;5056224;28;45645;-70
2023/12/13 01:20:31;;;;;;;;;5.33;3.00;;;;;11.73;80.51;99482.97;5054458;28;46197;-70
2023/12/13 01:22:57;;;;;;;;;2.67;1.67;;;;;11.73;80.08;99486.44;5055261;28;45447;-71
2023/12/13 01:25:22;;;;;;;;;3.00;2.00;;;;;11.73;80.20;99480.34;5055694;27;45653;-71
2023/12/13 01:27:48;;;;;;;;;2.33;2.00;;;;;11.68;79.67;99477.81;5056840;28;45535;-71
2023/12/13 01:30:13;;;;;;;;;2.00;2.00;;;;;11.58;80.12;99461.44;5046808;28;45493;-70
2023/12/13 01:32:39;;;;;;;;;2.33;1.33;;;;;11.55;79.34;99469.34;5043376;28;45460;-70
2023/12/13 01:35:06;;;;;;;;;3.00;2.00;;;;;11.61;79.13;99476.25;5042933;28;45538;-70
2023/12/13 01:37:31;;;;;;;;;1.67;1.67;;;;;11.54;79.08;99465.03;5052271;28;45392;-70
2023/12/13 01:39:57;;;;;;;;;4.00;1.00;;;;;11.21;78.31;99415.03;5042637;28;45412;-69
2023/12/13 01:42:23;;;;;;;;;3.00;2.00;;;;;11.42;78.82;99470.53;5052221;28;45462;-71
2023/12/13 01:44:49;;;;;;;;;4.00;2.33;;;;;11.40;79.36;99473.19;5056181;28;45465;-71
2023/12/13 01:47:16;;;;;;;;;4.00;3.00;;;;;11.37;79.25;99464.53;5055808;28;45424;-70
2023/12/13 01:49:42;;;;;;;;;2.00;2.00;;;;;11.34;79.36;99469.81;5056145;28;46232;-71
2023/12/13 01:52:08;;;;;;;;;2.67;2.00;;;;;11.30;79.49;99462.94;5055996;28;45349;-71
2023/12/13 01:54:35;;;;;;;;;1.33;0.67;;;;;11.33;80.04;99471.59;5056559;28;45662;-72
2023/12/13 01:57:01;;;;;;;;;3.00;2.00;;;;;11.35;79.72;99468.94;5056598;28;45410;-71
2023/12/13 01:59:28;;;;;;;;;2.67;1.33;;;;;11.36;79.80;99473.28;5055895;28;45515;-72
2023/12/13 02:01:56;;;;;;;;;2.33;1.00;;;;;11.31;79.21;99462.88;5057336;28;45430;-70
2023/12/13 02:04:27;;;;;;;;;3.00;2.67;;;;;11.21;79.88;99454.34;5059723;28;45327;-70
2023/12/13 02:06:54;;;;;;;;;6.33;1.00;;;;;11.01;79.82;99427.72;5061038;28;45282;-72
2023/12/13 02:09:20;;;;;;;;;5.00;1.00;;;;;11.05;79.67;99442.47;5058115;28;46843;-70
2023/12/13 02:11:46;;;;;;;;;4.00;1.00;;;;;11.14;79.88;99457.16;5059290;28;45338;-70
2023/12/13 02:14:13;;;;;;;;;5.00;3.00;;;;;11.16;79.97;99471.09;5059497;28;45465;-70
2023/12/13 02:16:39;;;;;;;;;3.33;2.00;;;;;11.23;80.15;99484.03;5058749;28;45411;-71
2023/12/13 02:19:05;;;;;;;;;2.67;1.67;;;;;10.97;80.00;99432.16;5060999;28;45510;-69
2023/12/13 02:21:31;;;;;;;;;2.33;2.00;;;;;11.16;79.56;99465.84;5059988;28;45451;-72
2023/12/13 02:24:11;;;;;;;;;3.67;2.67;;;;;10.96;79.82;99422.59;5056713;28;45521;-70
2023/12/13 02:26:43;;;;;;;;;2.33;1.00;;;;;11.04;79.50;99446.00;5056267;28;45889;-72
2023/12/13 02:29:10;;;;;;;;;2.00;0.00;;;;;10.75;79.84;99392.44;5053910;28;47955;-68
2023/12/13 02:31:35;;;;;;;;;4.00;1.00;;;;;10.68;79.67;99382.09;5060800;28;45325;-72
2023/12/13 02:34:01;;;;;;;;;2.33;0.67;;;;;11.06;79.95;99445.94;5059245;28;45340;-71
2023/12/13 02:36:27;;;;;;;;;2.00;1.33;;;;;10.86;79.58;99414.94;5059670;28;45509;-71
2023/12/13 02:38:53;;;;;;;;;2.00;1.00;;;;;11.15;80.47;99479.81;5057534;28;45494;-69
2023/12/13 02:41:19;;;;;;;;;3.00;1.33;;;;;11.15;80.36;99470.22;5058446;28;45528;-71
2023/12/13 02:43:45;;;;;;;;;5.67;1.00;;;;;11.17;79.45;99473.66;5058146;28;45433;-71
2023/12/13 02:46:11;;;;;;;;;6.00;2.50;;;;;10.63;79.57;99376.09;5059693;28;45542;-71
2023/12/13 02:48:37;;;;;;;;;3.67;2.00;;;;;11.11;80.15;99446.75;5057884;28;46794;-71
2023/12/13 02:51:03;;;;;;;;;5.33;0.67;;;;;10.94;79.57;99427.00;5058739;28;45349;-70
2023/12/13 02:53:29;;;;;;;;;1.00;1.00;;;;;11.17;79.90;99457.06;5064018;27;45354;-71
2023/12/13 02:55:55;;;;;;;;;1.67;1.00;;;;;11.10;79.79;99448.47;5051385;28;45661;-71
2023/12/13 02:58:21;;;;;;;;;2.67;1.33;;;;;10.36;79.60;99331.25;5058307;28;45708;-70
2023/12/13 03:00:48;;;;;;;;;4.33;3.00;;;;;11.11;79.79;99446.75;5059441;28;45404;-71
2023/12/13 03:03:14;;;;;;;;;7.67;1.33;;;;;10.64;79.52;99367.38;5058947;28;45449;-72
2023/12/13 03:05:40;;;;;;;;;3.67;2.00;;;;;11.10;79.07;99445.84;5059294;28;45439;-71
2023/12/13 03:08:05;;;;;;;;;3.33;1.00;;;;;11.00;79.05;99434.69;5061612;28;47587;-71
2023/12/13 03:10:31;;;;;;;;;3.00;2.67;;;;;11.09;78.89;99431.03;5061334;28;45242;-71
2023/12/13 03:12:57;;;;;;;;;2.00;2.00;;;;;10.87;79.29;99395.69;5061178;28;45377;-71
2023/12/13 03:15:23;;;;;;;;;2.67;1.00;;;;;11.08;79.43;99428.44;5061713;28;45529;-71
2023/12/13 03:17:48;;;;;;;;;2.00;1.00;;;;;11.00;79.21;99424.22;5059925;28;45933;-69
2023/12/13 03:20:14;;;;;;;;;5.67;1.00;;;;;10.95;79.07;99412.13;5059481;28;45447;-71
2023/12/13 03:22:39;;;;;;;;;2.00;1.00;;;;;11.00;78.87;99425.97;5059064;28;45377;-70
2023/12/13 03:25:05;;;;;;;;;1.67;1.67;;;;;10.97;79.05;99429.53;5058339;28;45356;-70
2023/12/13 03:27:31;;;;;;;;;0.00;0.00;;;;;10.97;79.74;99429.53;5056937;28;46630;-71
2023/12/13 03:29:56;;;;;;;;;2.33;1.00;;;;;10.92;79.42;99420.91;5073379;27;45420;-71
2023/12/13 03:32:22;;;;;;;;;1.67;1.00;;;;;10.99;79.89;99433.00;5058551;28;45361;-71
2023/12/13 03:34:48;;;;;;;;;3.33;1.00;;;;;10.87;79.66;99406.16;5059008;28;45225;-71
2023/12/13 03:37:14;;;;;;;;;1.00;1.00;;;;;10.81;79.84;99397.53;5058299;28;46369;-70
2023/12/13 03:39:40;;;;;;;;;2.00;1.00;;;;;10.97;79.36;99416.44;5058433;28;45307;-71
2023/12/13 03:42:06;;;;;;;;;2.00;0.33;;;;;10.80;80.24;99380.13;5058312;28;45337;-71
2023/12/13 03:44:32;;;;;;;;;3.00;1.00;;;;;10.83;79.53;99382.66;5075441;27;45344;-69
2023/12/13 03:46:58;;;;;;;;;1.33;1.00;;;;;10.90;79.07;99391.25;5059048;28;46216;-69
2023/12/13 03:49:23;;;;;;;;;2.33;1.33;;;;;11.08;78.91;99415.34;5058605;27;45236;-71
2023/12/13 03:51:49;;;;;;;;;3.67;1.00;;;;;10.97;79.35;99405.97;5058322;28;45447;-71
2023/12/13 03:54:15;;;;;;;;;2.00;2.00;;;;;10.92;79.50;99402.56;5058322;28;45298;-70
2023/12/13 03:56:41;;;;;;;;;1.33;1.33;;;;;10.91;79.79;99395.59;5058135;28;45448;-70
2023/12/13 03:59:07;;;;;;;;;3.00;1.00;;;;;10.93;79.59;99412.16;5058017;28;45360;-70
2023/12/13 04:01:33;;;;;;;;;2.33;2.33;;;;;11.01;79.39;99419.88;5058281;27;45236;-69
2023/12/13 04:03:58;;;;;;;;;3.33;1.67;;;;;10.91;79.44;99399.97;5061818;28;45419;-70
2023/12/13 04:06:31;;;;;;;;;2.67;1.00;;;;;10.74;79.56;99368.91;5065822;28;46077;-68
2023/12/13 04:08:56;;;;;;;;;3.00;1.00;;;;;10.97;79.91;99407.72;5062228;28;45480;-70
2023/12/13 04:11:22;;;;;;;;;2.33;1.33;;;;;10.89;79.98;99399.13;5058784;28;45225;-71
2023/12/13 04:13:47;;;;;;;;;5.33;2.00;;;;;10.78;80.04;99378.44;5058700;28;45518;-71
2023/12/13 04:16:13;;;;;;;;;1.00;0.00;;;;;10.87;79.58;99404.44;5058172;28;46123;-71
2023/12/13 04:18:39;;;;;;;;;2.67;1.00;;;;;10.83;79.61;99401.00;5058982;28;45481;-69
2023/12/13 04:21:05;;;;;;;;;6.67;1.00;;;;;10.77;79.47;99408.09;5059554;28;45447;-71
2023/12/13 04:23:31;;;;;;;;;2.00;2.00;;;;;10.75;79.90;99407.31;5059434;28;45327;-70
2023/12/13 04:25:56;;;;;;;;;2.00;1.00;;;;;10.72;80.34;99402.09;5058868;28;45384;-70
2023/12/13 04:28:22;;;;;;;;;1.00;1.00;;;;;10.61;80.58;99378.78;5058381;28;45431;-72
2023/12/13 04:30:48;;;;;;;;;2.00;1.00;;;;;10.72;80.16;99397.72;5057510;28;45531;-71
2023/12/13 04:33:18;;;;;;;;;3.00;2.33;;;;;10.78;80.23;99412.47;5057841;28;45266;-72
2023/12/13 04:35:44;;;;;;;;;1.00;1.00;;;;;10.64;80.50;99398.78;5057395;28;46371;-70
2023/12/13 04:38:09;;;;;;;;;3.00;1.00;;;;;10.66;80.75;99408.34;5057358;28;45449;-70
2023/12/13 04:40:35;;;;;;;;;5.33;1.00;;;;;10.71;80.39;99421.34;5056884;28;45373;-70
2023/12/13 04:43:02;;;;;;;;;3.33;1.00;;;;;10.70;80.26;99414.38;5057663;28;45217;-70
2023/12/13 04:45:27;;;;;;;;;5.33;2.00;;;;;10.59;80.57;99393.63;5056362;28;46544;-71
2023/12/13 04:47:53;;;;;;;;;6.00;2.00;;;;;10.71;80.90;99406.47;5057974;28;45579;-71
2023/12/13 04:50:18;;;;;;;;;0.00;0.00;;;;;10.70;80.94;99404.78;5058719;28;45407;-71
2023/12/13 04:52:44;;;;;;;;;2.33;1.00;;;;;10.73;81.27;99407.31;5056444;28;46033;-71
2023/12/13 04:55:09;;;;;;;;;1.00;1.00;;;;;10.74;80.40;99401.19;5072477;27;48214;-69
2023/12/13 04:57:35;;;;;;;;;4.67;1.00;;;;;10.74;80.45;99402.94;5056727;28;45344;-69
2023/12/13 05:00:00;;;;;;;;;4.67;2.00;;;;;10.72;80.32;99399.47;5057192;28;45745;-70
2023/12/13 05:02:26;;;;;;;;;2.00;0.67;;;;;10.72;80.49;99399.47;5056974;28;45719;-70
2023/12/13 05:04:52;;;;;;;;;2.00;1.00;;;;;10.69;80.11;99396.94;5056535;28;46319;-70
2023/12/13 05:07:18;;;;;;;;;5.00;1.67;;;;;10.57;80.34;99380.56;5056929;28;45175;-71
2023/12/13 05:09:43;;;;;;;;;6.33;2.00;;;;;10.55;79.97;99377.13;5057175;28;45447;-70
2023/12/13 05:12:09;;;;;;;;;1.33;1.00;;;;;10.58;80.67;99390.16;5056677;28;45532;-69
2023/12/13 05:14:34;;;;;;;;;4.33;1.00;;;;;10.46;80.79;99379.91;5057294;28;45689;-69
2023/12/13 05:17:00;;;;;;;;;6.00;2.75;;;;;10.59;80.14;99391.03;5057157;28;45590;-70
2023/12/13 05:19:25;;;;;;;;;6.75;3.00;;;;;10.62;80.49;99393.56;5056515;28;45344;-70
2023/12/13 05:21:51;;;;;;;;;4.67;2.33;;;;;10.59;80.23;99383.16;5056761;28;45559;-70
2023/12/13 05:24:16;;;;;;;;;6.00;1.67;;;;;10.55;80.12;99374.50;5057698;28;45420;-71
2023/12/13 05:26:42;;;;;;;;;2.67;1.67;;;;;10.64;80.14;99386.56;5056380;28;45387;-71
2023/12/13 05:29:07;;;;;;;;;1.00;1.00;;;;;10.65;80.48;99384.78;5057142;28;45297;-70
2023/12/13 05:31:54;;;;;;;;;3.00;2.00;;;;;10.70;80.04;99380.31;5056483;28;45484;-71
2023/12/13 05:34:19;;;;;;;;;1.67;1.00;;;;;10.53;80.15;99354.47;5049747;28;45266;-69
2023/12/13 05:36:45;;;;;;;;;2.00;0.67;;;;;10.65;80.31;99374.31;5056484;28;45441;-69
2023/12/13 05:39:11;;;;;;;;;1.00;1.00;;;;;10.73;79.67;99382.91;5058002;28;45427;-70
2023/12/13 05:41:36;;;;;;;;;3.67;1.00;;;;;10.73;79.55;99375.91;5057510;28;45407;-70
2023/12/13 05:44:02;;;;;;;;;7.00;1.00;;;;;10.74;79.53;99367.13;5055512;28;45617;-70
2023/12/13 05:46:33;;;;;;;;;3.33;2.00;;;;;10.72;79.41;99360.22;5054459;28;45452;-69
2023/12/13 05:49:01;;;;;;;;;5.00;2.00;;;;;10.74;79.22;99361.91;5056399;28;45466;-69
2023/12/13 05:51:27;;;;;;;;;4.00;1.33;;;;;10.78;79.21;99362.72;5056327;28;45421;-70
2023/12/13 05:53:53;;;;;;;;;3.33;1.00;;;;;10.80;79.06;99364.41;5057242;28;45427;-70
2023/12/13 05:56:18;;;;;;;;;6.33;2.00;;;;;10.81;79.11;99367.88;5057118;28;45515;-70
2023/12/13 05:58:44;;;;;;;;;1.33;1.33;;;;;10.78;79.48;99360.94;5041516;28;45379;-69
2023/12/13 06:01:10;;;;;;;;;2.00;2.00;;;;;10.81;78.67;99354.78;5056181;28;45371;-68
2023/12/13 06:03:35;;;;;;;;;1.00;0.33;;;;;10.67;79.24;99341.97;5055910;28;45422;-70
2023/12/13 06:06:01;;;;;;;;;5.67;2.00;;;;;10.66;79.55;99340.25;5055680;28;45640;-71
2023/12/13 06:08:27;;;;;;;;;3.00;1.33;;;;;10.72;79.45;99349.72;5056208;28;45337;-70
2023/12/13 06:11:15;;;;;;;;;5.33;2.00;;;;;10.60;79.38;99333.38;5056283;28;45510;-69
2023/12/13 06:13:41;;;;;;;;;7.00;2.00;;;;;10.71;79.40;99363.72;5052869;28;46991;-70
2023/12/13 06:16:12;;;;;;;;;2.33;2.00;;;;;10.70;79.08;99367.22;5055650;28;45445;-70
2023/12/13 06:18:38;;;;;;;;;2.00;2.00;;;;;10.61;79.31;99350.81;5047270;28;45465;-70
2023/12/13 06:21:03;;;;;;;;;4.33;1.67;;;;;10.69;79.29;99365.50;5055806;28;45540;-71
2023/12/13 06:23:29;;;;;;;;;6.00;2.00;;;;;10.63;79.49;99353.41;5055479;28;46463;-70
2023/12/13 06:25:54;;;;;;;;;2.00;1.00;;;;;10.58;79.73;99360.47;5055635;28;45333;-70
2023/12/13 06:28:22;;;;;;;;;2.00;2.00;;;;;10.55;79.54;99350.06;5055447;28;45593;-71
2023/12/13 06:30:47;;;;;;;;;9.00;3.00;;;;;10.66;79.25;99368.22;5055911;28;45451;-70
2023/12/13 06:33:14;;;;;;;;;7.25;3.75;;;;;10.66;79.40;99374.28;5054829;28;45827;-70
2023/12/13 06:35:40;;;;;;;;;2.75;2.50;;;;;10.54;80.03;99354.47;5054507;28;45297;-69
2023/12/13 06:38:13;;;;;;;;;3.33;2.00;;;;;10.43;79.89;99339.84;5055612;28;45479;-69
2023/12/13 06:40:42;;;;;;;;;4.00;3.00;;;;;10.64;79.39;99383.06;5054789;28;45493;-69
2023/12/13 06:43:08;;;;;;;;;5.00;2.00;;;;;10.60;79.01;99377.03;5056472;28;45471;-70
2023/12/13 06:45:36;;;;;;;;;3.75;3.50;;;;;10.46;79.74;99369.44;5055863;28;45638;-70
2023/12/13 06:48:02;;;;;;;;;5.75;3.00;;;;;10.43;79.91;99374.75;5059184;28;45494;-69
2023/12/13 06:50:28;;;;;;;;;5.00;4.00;;;;;10.39;79.72;99381.81;5058486;28;45613;-70
2023/12/13 06:52:54;;;;;;;;;4.50;2.25;;;;;10.26;80.04;99363.72;5057426;28;47476;-70
2023/12/13 06:55:21;;;;;;;;;3.75;2.00;;;;;10.35;80.08;99380.13;5058850;28;45258;-70
2023/12/13 06:57:47;;;;;;;;;6.75;3.50;;;;;10.35;79.58;99371.41;5058875;28;45473;-70
2023/12/13 07:00:14;;;;;;;;;7.00;3.25;;;;;10.43;79.72;99381.72;5059143;28;45452;-69
2023/12/13 07:02:57;;;;;;;;;5.33;3.67;;;;;10.29;79.20;99355.81;5059946;28;45375;-70
2023/12/13 07:05:29;;;;;;;;;3.00;2.00;;;;;10.39;79.42;99381.81;5058393;28;45890;-70
2023/12/13 07:07:55;;;;;;;;;2.00;2.00;;;;;10.25;79.47;99368.09;5058806;28;45492;-71
2023/12/13 07:10:28;;;;;;;;;2.00;2.00;;;;;10.05;79.45;99331.81;5058548;28;45499;-70
2023/12/13 07:12:55;;;;;;;;;3.00;2.00;;;;;10.15;79.69;99366.50;5053444;28;45559;-69
2023/12/13 07:15:27;;;;;;;;;6.75;3.00;;;;;10.20;79.43;99362.03;5044271;28;45520;-69
2023/12/13 07:17:53;;;;;;;;;2.00;1.33;;;;;10.09;79.15;99333.47;5058390;28;45435;-71
2023/12/13 07:20:21;;;;;;;;;6.25;3.00;;;;;10.34;79.51;99370.53;5057241;28;45537;-70
2023/12/13 07:22:47;;;;;;;;;6.67;2.00;;;;;10.39;79.23;99384.41;5055910;28;45652;-70
2023/12/13 07:25:12;;;;;;;;;2.00;2.00;;;;;10.31;79.71;99367.97;5060158;28;45503;-70
2023/12/13 07:27:38;;;;;;;;;4.50;2.50;;;;;10.38;78.99;99380.06;5062495;28;45422;-68
2023/12/13 07:30:04;;;;;;;;;3.67;2.33;;;;;10.23;79.06;99358.50;5058523;28;45643;-70
2023/12/13 07:32:29;;;;;;;;;3.67;2.33;;;;;10.38;79.27;99390.53;5057170;28;46868;-70
2023/12/13 07:34:55;;;;;;;;;1.67;1.67;;;;;10.37;78.79;99375.72;5055964;28;45665;-69
2023/12/13 07:37:20;;;;;;;;;10.50;2.50;;;;;10.42;79.22;99391.34;5057917;28;45493;-70
2023/12/13 07:39:46;;;;;;;;;4.00;2.00;;;;;10.38;79.70;99387.91;5059840;28;45415;-70
2023/12/13 07:42:11;;;;;;;;;7.00;2.50;;;;;10.34;79.28;99374.91;5058712;28;45765;-70
2023/12/13 07:44:37;;;;;;;;;3.67;2.00;;;;;10.48;78.77;99406.06;5057853;28;45543;-70
2023/12/13 07:47:03;;;;;;;;;3.75;3.25;;;;;10.45;79.30;99396.53;5058015;28;45415;-70
2023/12/13 07:49:28;;;;;;;;;1.75;0.25;;;;;10.49;78.84;99398.19;5058371;28;45531;-69
2023/12/13 07:51:55;;;;;;;;;2.75;1.75;;;;;10.52;78.02;99402.50;5058054;28;47557;-70
2023/12/13 07:54:23;;;;;;;;;5.33;2.67;;;;;10.47;77.85;99399.97;5058424;28;45500;-70
2023/12/13 07:56:50;;;;;;;;;2.67;2.00;;;;;10.58;77.59;99418.97;5058240;28;45318;-70
2023/12/13 07:59:20;;;;;;;;;12.00;8.75;;;;;10.59;77.05;99407.59;5055886;28;45546;-69
2023/12/13 08:01:46;;;;;;;;;6.00;3.00;;;;;10.55;77.18;99398.06;5057102;28;46794;-70
2023/12/13 08:04:12;;;;;;;;;4.50;3.00;;;;;10.27;76.73;99345.34;5059797;28;45345;-71
2023/12/13 08:06:37;;;;;;;;;5.67;2.33;;;;;10.23;76.60;99333.22;5059530;27;45239;-71
2023/12/13 08:09:03;;;;;;;;;4.33;2.33;;;;;10.56;76.57;99368.38;5058093;28;45525;-71
2023/12/13 08:11:29;;;;;;;;;3.00;2.25;;;;;10.97;75.29;99400.72;5056481;28;46454;-71
2023/12/13 08:13:56;;;;;;;;;1.00;1.00;;;;;11.29;74.15;99372.94;5057810;28;45499;-70
2023/12/13 08:16:22;;;;;;;;;3.00;2.00;;;;;11.87;72.99;99425.84;5057750;28;45670;-69
2023/12/13 08:18:48;;;;;;;;;2.00;1.33;;;;;11.88;72.82;99436.25;5057976;28;45462;-71
2023/12/13 08:21:14;;;;;;;;;2.00;1.67;;;;;11.63;71.99;99401.88;5059252;28;45303;-71
2023/12/13 08:23:40;;;;;;;;;2.00;1.00;;;;;11.40;72.20;99377.94;5057946;28;45488;-70
2023/12/13 08:26:06;;;;;;;;;2.67;1.00;;;;;11.56;71.86;99420.41;5059345;28;45417;-70
2023/12/13 08:28:32;;;;;;;;;2.33;1.33;;;;;11.48;71.65;99409.22;5059248;28;45279;-70
2023/12/13 08:30:58;;;;;;;;;6.33;2.67;;;;;11.65;72.14;99449.03;5058921;28;45554;-71
2023/12/13 08:33:24;;;;;;;;;5.00;3.00;;;;;11.28;72.02;99402.69;5057049;28;45669;-70
2023/12/13 08:35:50;;;;;;;;;3.33;1.33;;;;;11.54;72.08;99448.44;5056679;28;45590;-71
2023/12/13 08:38:16;;;;;;;;;3.00;1.33;;;;;11.23;72.35;99409.78;5058874;28;45454;-70
2023/12/13 08:40:42;;;;;;;;;1.33;1.33;;;;;11.48;72.22;99453.81;5058821;28;45435;-70
2023/12/13 08:43:07;;;;;;;;;8.00;3.00;;;;;11.33;72.36;99437.50;5059151;28;45530;-71
2023/12/13 08:45:33;;;;;;;;;2.00;2.00;;;;;10.72;72.23;99344.50;5057541;28;45460;-72
2023/12/13 08:47:59;;;;;;;;;2.00;1.00;;;;;11.21;72.44;99420.28;5057446;28;45449;-71
2023/12/13 08:50:24;;;;;;;;;4.00;2.67;;;;;11.29;71.99;99441.09;5057328;28;45343;-71
2023/12/13 08:52:50;;;;;;;;;3.33;2.33;;;;;11.31;71.97;99449.78;5057314;28;45325;-70
2023/12/13 08:55:15;;;;;;;;;1.00;1.00;;;;;11.18;72.47;99428.22;5057534;28;45294;-70
2023/12/13 08:57:41;;;;;;;;;1.00;0.67;;;;;11.31;71.94;99452.41;5058121;28;45496;-70
2023/12/13 09:00:07;;;;;;;;;1.00;1.00;;;;;11.35;72.12;99451.44;5055478;28;45408;-70
2023/12/13 09:02:38;;;;;;;;;1.33;1.33;;;;;11.42;71.88;99460.06;5055964;28;45685;-70
2023/12/13 09:05:10;;;;;;;;;2.00;0.33;;;;;11.46;72.31;99459.94;5056227;28;45424;-72
2023/12/13 09:07:35;;;;;;;;;3.67;1.00;;;;;11.45;72.44;99458.22;5057692;28;45496;-69
2023/12/13 09:10:01;;;;;;;;;3.00;1.67;;;;;11.45;71.80;99465.22;5055526;28;45993;-71
2023/12/13 09:12:27;;;;;;;;;5.67;3.00;;;;;11.42;71.79;99465.28;5057516;28;45315;-72
2023/12/13 09:14:53;;;;;;;;;1.00;1.00;;;;;11.40;72.00;99473.19;5057743;28;45487;-73
2023/12/13 09:17:18;;;;;;;;;5.00;3.00;;;;;11.37;71.73;99465.41;5059555;28;45756;-72
2023/12/13 09:19:44;;;;;;;;;3.33;2.00;;;;;11.33;72.11;99474.22;5057488;28;46595;-71
2023/12/13 09:22:09;;;;;;;;;3.33;1.33;;;;;11.37;72.18;99481.13;5056851;28;45717;-72
2023/12/13 09:24:35;;;;;;;;;3.00;1.00;;;;;11.34;71.92;99465.47;5058032;28;45450;-70
2023/12/13 09:27:07;;;;;;;;;1.33;1.00;;;;;11.36;72.94;99470.66;5058536;28;45634;-73
2023/12/13 09:29:33;;;;;;;;;2.33;1.00;;;;;11.32;72.34;99441.03;5054961;28;45621;-71
2023/12/13 09:32:05;;;;;;;;;3.00;2.00;;;;;11.55;72.08;99474.59;5055315;28;45443;-71
2023/12/13 09:34:31;;;;;;;;;2.00;2.00;;;;;11.58;71.50;99479.81;5057549;28;45764;-71
2023/12/13 09:37:03;;;;;;;;;1.00;1.00;;;;;11.61;71.63;99479.72;5057135;28;45331;-71
2023/12/13 09:39:28;;;;;;;;;3.00;1.00;;;;;11.67;71.23;99476.09;5057239;28;45693;-72
2023/12/13 09:42:00;;;;;;;;;1.67;1.33;;;;;11.63;71.69;99466.59;5055603;28;45634;-71
2023/12/13 09:44:26;;;;;;;;;4.00;1.00;;;;;11.72;71.10;99482.13;5045550;28;45510;-72
2023/12/13 09:46:58;;;;;;;;;1.67;1.67;;;;;11.81;72.82;99479.25;5056700;28;45465;-71
2023/12/13 09:49:26;;;;;;;;;4.33;2.00;;;;;11.81;71.23;99487.13;5054667;28;46855;-72
2023/12/13 09:51:54;;;;;;;;;3.00;1.00;;;;;11.58;70.48;99473.66;5056537;28;45536;-71
2023/12/13 09:54:26;;;;;;;;;3.00;1.00;;;;;11.73;70.85;99498.72;5056379;28;45915;-71
2023/12/13 09:56:52;;;;;;;;;2.33;1.00;;;;;11.68;71.16;99504.91;5054748;28;45523;-71
2023/12/13 09:59:17;;;;;;;;;1.00;1.00;;;;;11.66;71.06;99496.22;5055344;28;45402;-73
2023/12/13 10:01:43;;;;;;;;;2.00;2.00;;;;;11.64;71.07;99490.13;5055742;28;45510;-72
2023/12/13 10:04:08;;;;;;;;;2.00;1.00;;;;;11.63;71.20;99487.56;5055544;28;45459;-72
2023/12/13 10:06:39;;;;;;;;;3.00;1.00;;;;;12.12;70.35;99486.44;5055411;28;45356;-71
2023/12/13 10:09:12;;;;;;;;;2.67;2.00;;;;;12.60;68.23;99449.34;5053732;28;47603;-72
2023/12/13 10:11:45;;;;;;;;;3.33;1.33;;;;;13.73;66.11;99486.44;5055984;27;45396;-71
2023/12/13 10:14:10;;;;;;;;;1.67;1.33;;;;;14.45;64.87;99491.16;5056761;28;45545;-71
2023/12/13 10:16:39;;;;;;;;;6.00;1.67;;;;;14.41;64.00;99503.56;5056060;28;45401;-71
2023/12/13 10:19:06;;;;;;;;;1.00;1.00;;;;;14.10;63.93;99499.31;5056453;28;45976;-70
2023/12/13 10:21:36;;;;;;;;;3.00;1.00;;;;;13.86;63.59;99500.94;5056483;28;45490;-72
2023/12/13 10:24:05;;;;;;;;;2.67;1.33;;;;;13.52;63.78;99474.78;5066034;28;45488;-71
2023/12/13 10:26:36;;;;;;;;;2.00;1.00;;;;;13.60;64.65;99524.56;5060452;28;45455;-71
2023/12/13 10:29:05;;;;;;;;;3.00;1.00;;;;;13.34;65.02;99515.66;5060455;28;45498;-71
2023/12/13 10:31:35;;;;;;;;;6.00;3.00;;;;;13.21;65.08;99520.34;5059049;28;45498;-70
2023/12/13 10:34:01;;;;;;;;;1.33;1.33;;;;;13.11;65.68;99526.78;5060143;28;45428;-72
2023/12/13 10:36:31;;;;;;;;;2.67;2.00;;;;;13.01;66.48;99520.06;5054571;28;45429;-76
2023/12/13 10:39:03;;;;;;;;;3.00;1.00;;;;;12.91;66.43;99529.97;5066106;28;46173;-75
2023/12/13 10:41:30;;;;;;;;;2.00;2.00;;;;;12.21;66.93;99425.84;5072887;28;45544;-74
2023/12/13 10:43:58;;;;;;;;;2.67;2.00;;;;;12.76;67.12;99533.00;5073642;28;45383;-77
2023/12/13 10:46:32;;;;;;;;;2.00;1.67;;;;;12.67;67.25;99532.34;5064410;28;44991;-75
2023/12/13 10:48:59;;;;;;;;;1.67;1.67;;;;;12.24;67.27;99483.53;5071255;28;45426;-76
2023/12/13 10:51:26;;;;;;;;;4.67;2.00;;;;;12.29;67.18;99514.91;5070441;28;45290;-75
2023/12/13 10:53:52;;;;;;;;;3.33;2.00;;;;;12.35;68.21;99533.13;5063629;28;45631;-77
2023/12/13 10:56:19;;;;;;;;;4.00;1.33;;;;;12.29;68.19;99543.78;5061402;28;45537;-77
2023/12/13 10:58:45;;;;;;;;;2.00;2.00;;;;;12.17;68.10;99534.47;5060945;28;46076;-77
2023/12/13 11:01:14;;;;;;;;;3.00;3.00;;;;;12.18;68.49;99545.81;5061490;28;45513;-75
2023/12/13 11:04:01;;;;;;;;;4.67;2.00;;;;;12.14;68.56;99544.16;5053296;28;45543;-78
2023/12/13 11:06:27;;;;;;;;;7.33;2.00;;;;;12.03;68.93;99531.25;5059413;28;45384;-77
2023/12/13 11:08:52;;;;;;;;;1.00;1.00;;;;;12.11;69.02;99545.09;5059037;28;46530;-74
2023/12/13 11:11:18;;;;;;;;;2.33;2.33;;;;;11.76;70.60;99489.00;5050119;28;45328;-74
2023/12/13 11:13:48;;;;;;;;;4.33;3.00;;;;;12.14;69.68;99562.53;5053608;28;45376;-75
2023/12/13 11:16:28;;;;;;;;;2.67;2.00;;;;;12.13;69.42;99558.19;5059489;28;45591;-78
2023/12/13 11:18:58;;;;;;;;;3.00;3.00;;;;;11.96;68.74;99535.81;5059104;28;45651;-75
2023/12/13 11:21:34;;;;;;;;;3.33;3.33;;;;;11.73;68.90;99515.31;5058526;28;45456;-75
2023/12/13 11:24:16;;;;;;;;;3.67;3.00;;;;;11.72;69.60;99505.72;5060133;28;45376;-76
2023/12/13 11:26:54;;;;;;;;;2.67;2.67;;;;;11.86;69.32;99539.50;5059430;28;45315;-75
2023/12/13 11:29:24;;;;;;;;;3.00;3.00;;;;;11.53;69.51;99465.94;5059789;28;46339;-74
2023/12/13 11:32:05;;;;;;;;;3.00;2.33;;;;;12.03;68.63;99550.53;5059258;28;45511;-74